This is the latest recevied weather packets stored in our database for station/object DM4XI-13. If no packets are shown the sender has not sent any weather packets the latest 10 day(s).
| Time | Temp. | Humidity | Pressure | Rain* | Wind** | Luminosity | Snow |
|---|---|---|---|---|---|---|---|
| 1778170538 | 11.67° C | 76% | 1012.4 hPa | 0 mm | 0.45 m/s, 282° | 62 W/m² | - |
| 1778170477 | 11.67° C | 76% | 1012.4 hPa | 0 mm | 0.89 m/s, 261° | 57 W/m² | - |
| 1778170416 | 11.67° C | 76% | 1012.2 hPa | 0 mm | 0.89 m/s, 275° | 55 W/m² | - |
| 1778170354 | 11.67° C | 75% | 1012.3 hPa | 0 mm | 0.89 m/s, 243° | 57 W/m² | - |
| 1778170294 | 11.67° C | 75% | 1012.3 hPa | 0 mm | 0 m/s | 61 W/m² | - |
| 1778170233 | 11.67° C | 75% | 1012.3 hPa | 0 mm | 1.34 m/s, 294° | 65 W/m² | - |
| 1778170172 | 11.67° C | 75% | 1012.1 hPa | 0 mm | 0 m/s | 71 W/m² | - |
| 1778170111 | 11.67° C | 76% | 1012.2 hPa | 0 mm | 0.89 m/s, 244° | 79 W/m² | - |
| 1778170050 | 11.67° C | 75% | 1012.3 hPa | 0 mm | 1.34 m/s, 312° | 84 W/m² | - |
| 1778169989 | 11.67° C | 75% | 1012.4 hPa | 0 mm | 0 m/s | 86 W/m² | - |
| 1778169928 | 11.67° C | 75% | 1012.3 hPa | 0 mm | 0.89 m/s, 259° | 84 W/m² | - |
| 1778169866 | 11.67° C | 75% | 1012.3 hPa | 0 mm | 0.89 m/s, 283° | 83 W/m² | - |
| 1778169806 | 11.67° C | 74% | 1012.4 hPa | 0 mm | 1.34 m/s, 268° | 85 W/m² | - |
| 1778169745 | 11.67° C | 75% | 1012.3 hPa | 0 mm | 1.34 m/s, 318° | 88 W/m² | - |
| 1778169684 | 11.67° C | 74% | 1012.3 hPa | 0 mm | 1.34 m/s, 294° | 92 W/m² | - |
| 1778169623 | 11.67° C | 74% | 1012.3 hPa | 0 mm | 1.34 m/s, 277° | 95 W/m² | - |
| 1778169561 | 11.67° C | 75% | 1012.3 hPa | 0 mm | 0.89 m/s, 286° | 100 W/m² | - |
| 1778169501 | 11.67° C | 74% | 1012.3 hPa | 0 mm | 0.89 m/s, 275° | 104 W/m² | - |
| 1778169439 | 11.67° C | 75% | 1012.3 hPa | 0 mm | 1.34 m/s, 296° | 109 W/m² | - |
| 1778169379 | 11.67° C | 75% | 1012.3 hPa | 0 mm | 1.34 m/s, 309° | 111 W/m² | - |
| 1778169317 | 11.67° C | 75% | 1012.3 hPa | 0 mm | 1.79 m/s, 326° | 112 W/m² | - |
| 1778169256 | 11.67° C | 75% | 1012.3 hPa | 0 mm | 2.68 m/s, 359° | 111 W/m² | - |
| 1778169195 | 12.22° C | 75% | 1012.3 hPa | 0 mm | 1.79 m/s, 310° | 110 W/m² | - |
| 1778169135 | 12.22° C | 75% | 1012.4 hPa | 0 mm | 0.89 m/s, 293° | 110 W/m² | - |
| 1778169074 | 12.22° C | 75% | 1012.3 hPa | 0 mm | 1.34 m/s, 332° | 110 W/m² | - |
* Rain latest hour (hover to see other rain measurements)
** Current wind speed in m/s (hover to see current wind gust speed)